createdAt,value
2023-01-06T00:01:42.459Z,92.46
2023-01-06T00:04:45.259Z,92.53
2023-01-06T00:07:50.309Z,92.58
2023-01-06T00:10:57.491Z,92.57
2023-01-06T00:14:03.908Z,92.98
2023-01-06T00:17:06.592Z,92.68
2023-01-06T00:20:15.447Z,93.06
2023-01-06T00:23:18.203Z,93.28
2023-01-06T00:26:22.919Z,93.30
2023-01-06T00:29:25.613Z,93.17
2023-01-06T00:32:28.379Z,93.18
2023-01-06T00:35:33.304Z,93.20
2023-01-06T00:38:37.315Z,93.06
2023-01-06T00:41:59.236Z,93.21
2023-01-06T00:45:01.921Z,93.01
2023-01-06T00:48:10.803Z,92.93
2023-01-06T00:51:13.471Z,93.11
2023-01-06T00:54:17.056Z,93.01
2023-01-06T00:57:25.078Z,93.37
2023-01-06T01:00:30.875Z,93.24
2023-01-06T01:03:34.797Z,93.30
2023-01-06T01:06:38.317Z,93.35
2023-01-06T01:09:41.070Z,93.24
2023-01-06T01:12:54.031Z,93.74
2023-01-06T01:15:56.835Z,93.34
2023-01-06T01:18:59.607Z,93.55
2023-01-06T01:22:02.820Z,93.72
2023-01-06T01:25:06.242Z,93.70
2023-01-06T01:28:10.254Z,93.95
2023-01-06T01:31:16.906Z,93.74
2023-01-06T01:34:20.556Z,94.00
2023-01-06T01:37:23.348Z,93.84
2023-01-06T01:40:26.028Z,93.67
2023-01-06T01:46:57.475Z,93.87
2023-01-06T01:50:06.539Z,93.87
2023-01-06T01:53:14.402Z,93.92
2023-01-06T01:56:21.232Z,94.27
2023-01-06T01:59:27.075Z,93.90
2023-01-06T02:02:33.343Z,94.14
2023-01-06T02:05:45.148Z,93.99
2023-01-06T02:08:56.436Z,94.00
2023-01-06T02:12:02.812Z,94.45
2023-01-06T02:15:16.633Z,94.43
2023-01-06T02:19:03.492Z,94.27
2023-01-06T02:22:32.364Z,94.42
2023-01-06T02:26:00.747Z,94.09
2023-01-06T02:29:28.913Z,93.96
2023-01-06T02:32:42.404Z,94.44
2023-01-06T02:36:07.860Z,94.37
2023-01-06T02:39:23.167Z,94.53
2023-01-06T02:42:50.056Z,94.40
2023-01-06T02:46:03.789Z,94.49
2023-01-06T02:49:21.937Z,94.81
2023-01-06T02:52:32.585Z,95.06
2023-01-06T02:55:39.151Z,95.04
2023-01-06T02:58:48.468Z,94.72
2023-01-06T03:01:54.809Z,95.01
2023-01-06T03:05:02.658Z,94.90
2023-01-06T03:08:09.683Z,95.11
2023-01-06T03:11:16.083Z,95.08
2023-01-06T03:14:25.775Z,95.16
2023-01-06T03:17:28.580Z,95.10
2023-01-06T03:20:35.977Z,95.47
2023-01-06T03:23:40.568Z,95.35
2023-01-06T03:26:46.289Z,95.26
2023-01-06T03:29:49.225Z,95.37
2023-01-06T03:33:08.269Z,95.47
2023-01-06T03:36:22.656Z,95.70
2023-01-06T03:39:34.880Z,95.64
2023-01-06T03:43:02.903Z,95.92
2023-01-06T03:46:28.298Z,96.06
2023-01-06T03:49:38.042Z,95.81
2023-01-06T03:52:49.228Z,96.13
2023-01-06T03:56:04.347Z,96.05
2023-01-06T03:59:14.651Z,96.23
2023-01-06T04:02:20.638Z,96.42
2023-01-06T04:05:28.796Z,96.28
2023-01-06T04:08:32.789Z,96.58
2023-01-06T04:11:53.352Z,97.01
2023-01-06T04:14:58.470Z,96.88
2023-01-06T04:18:04.425Z,96.84
2023-01-06T04:21:07.183Z,97.37
2023-01-06T04:24:11.345Z,98.21
2023-01-06T04:27:20.739Z,97.90
2023-01-06T04:30:23.380Z,98.58
2023-01-06T04:33:26.034Z,98.51
2023-01-06T04:36:28.822Z,98.92
2023-01-06T04:39:32.832Z,99.35
2023-01-06T04:42:49.867Z,98.86
2023-01-06T04:45:52.662Z,98.84
2023-01-06T04:48:57.389Z,99.22
2023-01-06T04:52:02.123Z,99.73
2023-01-06T04:55:06.647Z,100.00
2023-01-06T04:58:10.058Z,100.00
2023-01-06T05:01:14.306Z,100.00
2023-01-06T05:04:16.992Z,100.00
2023-01-06T05:07:19.672Z,100.00
2023-01-06T05:10:26.385Z,99.63
2023-01-06T05:13:32.364Z,99.94
2023-01-06T05:16:38.321Z,99.72
2023-01-06T05:19:42.935Z,99.32
2023-01-06T05:22:45.621Z,99.33
2023-01-06T05:25:51.554Z,99.53
2023-01-06T05:28:54.426Z,99.40
2023-01-06T05:31:57.133Z,99.14
2023-01-06T05:35:02.475Z,99.30
2023-01-06T05:38:05.452Z,99.29
2023-01-06T05:41:09.863Z,99.09
2023-01-06T05:44:14.878Z,99.33
2023-01-06T05:47:17.553Z,99.27
2023-01-06T05:50:20.269Z,99.11
2023-01-06T05:53:22.966Z,99.21
2023-01-06T05:56:33.043Z,99.00
2023-01-06T05:59:35.702Z,98.83
2023-01-06T06:02:38.337Z,98.95
2023-01-06T06:05:41.397Z,99.07
2023-01-06T06:08:47.289Z,99.38
2023-01-06T06:11:51.881Z,99.26
2023-01-06T06:14:54.603Z,99.63
2023-01-06T06:17:57.258Z,99.87
2023-01-06T06:21:03.710Z,99.67
2023-01-06T06:24:07.216Z,99.73
2023-01-06T06:27:11.373Z,99.70
2023-01-06T06:30:16.631Z,99.89
2023-01-06T06:33:22.451Z,99.87
2023-01-06T06:36:26.078Z,100.00
2023-01-06T06:39:31.809Z,99.80
2023-01-06T06:42:35.912Z,99.42
2023-01-06T06:45:49.195Z,99.42
2023-01-06T06:48:52.364Z,99.50
2023-01-06T06:51:55.624Z,99.53
2023-01-06T06:54:58.299Z,99.89
2023-01-06T06:58:02.349Z,99.97
2023-01-06T07:01:05.815Z,100.00
2023-01-06T07:04:09.975Z,99.92
2023-01-06T07:07:12.648Z,100.00
2023-01-06T07:10:16.972Z,100.00
2023-01-06T07:13:24.077Z,100.00
2023-01-06T07:16:27.555Z,100.00
2023-01-06T07:19:32.327Z,100.00
2023-01-06T07:22:38.437Z,100.00
2023-01-06T07:25:43.122Z,100.00
2023-01-06T07:28:47.165Z,100.00
2023-01-06T07:31:52.998Z,100.00
2023-01-06T07:34:55.683Z,100.00
2023-01-06T07:38:03.596Z,100.00
2023-01-06T07:41:06.311Z,100.00
2023-01-06T07:44:10.426Z,100.00
2023-01-06T07:47:13.070Z,100.00
2023-01-06T07:50:26.488Z,100.00
2023-01-06T07:53:29.259Z,99.79
2023-01-06T07:56:34.144Z,99.55
2023-01-06T07:59:41.677Z,99.15
2023-01-06T08:02:48.041Z,98.99
2023-01-06T08:05:50.790Z,98.35
2023-01-06T08:08:53.533Z,97.64
2023-01-06T08:11:56.210Z,97.44
2023-01-06T08:15:03.204Z,96.78
2023-01-06T08:18:06.435Z,96.01
2023-01-06T08:21:11.719Z,95.62
2023-01-06T08:24:14.361Z,95.26
2023-01-06T08:27:20.684Z,95.65
2023-01-06T08:30:39.725Z,93.85
2023-01-06T08:33:48.643Z,94.78
2023-01-06T08:36:52.643Z,96.14
2023-01-06T08:39:55.421Z,96.06
2023-01-06T08:43:05.599Z,96.68
2023-01-06T08:46:12.507Z,97.48
2023-01-06T08:49:15.609Z,97.75
2023-01-06T08:52:21.721Z,95.32
2023-01-06T08:55:26.549Z,94.95
2023-01-06T08:58:29.227Z,95.38
2023-01-06T09:01:37.287Z,93.59
2023-01-06T09:04:40.316Z,93.89
2023-01-06T09:07:43.033Z,94.43
2023-01-06T09:10:45.999Z,93.97
2023-01-06T09:13:50.512Z,92.13
2023-01-06T09:16:54.616Z,92.39
2023-01-06T09:19:57.268Z,91.55
2023-01-06T09:23:02.233Z,91.50
2023-01-06T09:26:05.316Z,90.77
2023-01-06T09:29:15.272Z,90.49
2023-01-06T09:32:19.282Z,90.06
2023-01-06T09:35:22.013Z,89.79
2023-01-06T09:38:24.701Z,89.29
2023-01-06T09:41:54.258Z,89.14
2023-01-06T09:44:59.589Z,88.79
2023-01-06T09:48:07.155Z,88.95
2023-01-06T09:51:15.933Z,88.51
2023-01-06T09:54:23.845Z,88.26
2023-01-06T09:57:32.202Z,88.07
2023-01-06T10:00:39.334Z,87.80
2023-01-06T10:03:44.348Z,87.58
2023-01-06T10:06:53.592Z,87.02
2023-01-06T10:10:08.493Z,85.82
2023-01-06T10:13:33.038Z,85.24
2023-01-06T10:16:53.156Z,85.73
2023-01-06T10:20:07.111Z,85.63
2023-01-06T10:23:26.808Z,85.35
2023-01-06T10:26:31.904Z,84.27
2023-01-06T10:29:37.978Z,84.20
2023-01-06T10:32:42.825Z,83.88
2023-01-06T10:35:47.024Z,82.26
2023-01-06T10:38:53.439Z,82.04
2023-01-06T10:42:16.652Z,82.92
2023-01-06T10:45:21.226Z,83.32
2023-01-06T10:48:28.077Z,83.55
2023-01-06T10:51:40.253Z,83.76
2023-01-06T10:54:44.238Z,84.15
2023-01-06T10:57:48.260Z,83.85
2023-01-06T11:00:59.515Z,84.33
2023-01-06T11:04:11.655Z,84.34
2023-01-06T11:07:15.898Z,84.84
2023-01-06T11:10:28.428Z,84.65
2023-01-06T11:13:35.647Z,84.64
2023-01-06T11:16:38.405Z,84.39
2023-01-06T11:19:43.087Z,84.68
2023-01-06T11:22:48.450Z,84.66
2023-01-06T11:26:12.861Z,85.20
2023-01-06T11:29:23.988Z,84.94
2023-01-06T11:32:30.497Z,84.52
2023-01-06T11:35:34.579Z,85.02
2023-01-06T11:38:48.200Z,84.85
2023-01-06T11:41:53.902Z,84.61
2023-01-06T11:44:59.163Z,84.15
2023-01-06T11:48:02.530Z,83.83
2023-01-06T11:51:08.134Z,83.96
2023-01-06T11:54:24.796Z,83.61
2023-01-06T11:57:35.524Z,83.26
2023-01-06T12:00:46.509Z,82.78
2023-01-06T12:03:55.159Z,82.07
2023-01-06T12:07:04.711Z,82.24
2023-01-06T12:10:17.395Z,81.78
2023-01-06T12:13:20.184Z,81.65
2023-01-06T12:16:36.172Z,81.14
2023-01-06T12:19:46.131Z,80.61
2023-01-06T12:22:51.072Z,80.41
2023-01-06T12:25:57.638Z,80.03
2023-01-06T12:29:01.939Z,79.78
2023-01-06T12:32:11.460Z,79.56
2023-01-06T12:35:20.803Z,80.28
2023-01-06T12:38:43.492Z,79.85
2023-01-06T12:41:53.175Z,79.69
2023-01-06T12:45:02.970Z,79.75
2023-01-06T12:48:18.026Z,78.81
2023-01-06T12:51:37.323Z,79.76
2023-01-06T12:54:40.523Z,79.34
2023-01-06T12:57:56.974Z,79.02
2023-01-06T13:01:06.322Z,79.22
2023-01-06T13:04:43.487Z,78.97
2023-01-06T13:07:52.665Z,78.82
2023-01-06T13:11:08.231Z,78.63
2023-01-06T13:14:21.494Z,78.86
2023-01-06T13:17:29.984Z,79.07
2023-01-06T13:20:43.155Z,79.27
2023-01-06T13:24:05.616Z,79.25
2023-01-06T13:27:38.791Z,79.20
2023-01-06T13:31:09.701Z,78.66
2023-01-06T13:34:34.944Z,78.53
2023-01-06T13:37:42.138Z,78.56
2023-01-06T13:40:48.521Z,78.42
2023-01-06T13:43:54.235Z,78.10
2023-01-06T13:47:06.250Z,78.36
2023-01-06T13:50:13.266Z,77.75
2023-01-06T13:53:20.865Z,78.24
2023-01-06T13:56:29.215Z,78.36
2023-01-06T13:59:49.165Z,78.40
2023-01-06T14:03:29.238Z,78.92
2023-01-06T14:06:47.024Z,79.00
2023-01-06T14:09:51.017Z,79.12
2023-01-06T14:12:54.435Z,78.94
2023-01-06T14:15:59.974Z,78.94
2023-01-06T14:19:08.462Z,78.51
2023-01-06T14:22:17.037Z,79.19
2023-01-06T14:25:24.416Z,79.57
2023-01-06T14:28:32.281Z,79.43
2023-01-06T14:31:39.398Z,80.33
2023-01-06T14:34:50.334Z,80.36
2023-01-06T14:37:59.007Z,80.49
2023-01-06T14:41:05.474Z,80.42
2023-01-06T14:44:14.873Z,80.28
2023-01-06T14:47:23.797Z,80.85
2023-01-06T14:50:45.769Z,80.57
2023-01-06T14:54:04.402Z,80.81
2023-01-06T14:57:07.723Z,81.04
2023-01-06T15:00:17.881Z,80.89
2023-01-06T15:03:23.766Z,81.07
2023-01-06T15:06:29.295Z,80.71
2023-01-06T15:09:33.336Z,80.88
2023-01-06T15:12:36.795Z,80.74
2023-01-06T15:15:39.832Z,80.51
2023-01-06T15:18:44.831Z,80.69
2023-01-06T15:21:50.788Z,80.31
2023-01-06T15:24:57.695Z,80.40
2023-01-06T15:28:00.449Z,80.80
2023-01-06T15:31:03.837Z,80.86
2023-01-06T15:34:09.661Z,80.72
2023-01-06T15:37:20.383Z,81.16
2023-01-06T15:40:23.671Z,81.41
2023-01-06T15:43:29.137Z,81.26
2023-01-06T15:46:40.653Z,81.93
2023-01-06T15:49:49.650Z,81.91
2023-01-06T15:52:55.823Z,81.95
2023-01-06T15:56:00.234Z,82.16
2023-01-06T15:59:03.474Z,81.57
2023-01-06T16:02:06.504Z,82.25
2023-01-06T16:05:38.221Z,82.07
2023-01-06T16:08:43.436Z,82.08
2023-01-06T16:11:58.930Z,81.82
2023-01-06T16:15:45.059Z,82.10
2023-01-06T16:18:52.168Z,82.12
2023-01-06T16:21:56.481Z,82.40
2023-01-06T16:25:07.865Z,82.44
2023-01-06T16:28:20.616Z,82.79
2023-01-06T16:31:32.290Z,82.88
2023-01-06T16:34:35.047Z,83.34
2023-01-06T16:37:37.709Z,82.85
2023-01-06T16:40:41.728Z,83.50
2023-01-06T16:43:45.352Z,83.03
2023-01-06T16:46:48.167Z,83.03
2023-01-06T16:49:50.855Z,83.67
2023-01-06T16:53:03.154Z,83.91
2023-01-06T16:56:18.696Z,84.07
2023-01-06T16:59:22.142Z,84.15
2023-01-06T17:02:24.951Z,84.29
2023-01-06T17:05:30.018Z,84.64
2023-01-06T17:08:38.488Z,84.85
2023-01-06T17:11:42.627Z,84.87
2023-01-06T17:14:45.238Z,84.90
2023-01-06T17:17:50.220Z,85.00
2023-01-06T17:20:55.782Z,84.51
2023-01-06T17:24:06.366Z,84.87
2023-01-06T17:27:23.398Z,84.72
2023-01-06T17:30:28.390Z,84.85
2023-01-06T17:33:31.566Z,84.66
2023-01-06T17:36:39.609Z,84.53
2023-01-06T17:39:44.018Z,84.52
2023-01-06T17:42:51.904Z,84.40
2023-01-06T17:45:54.647Z,84.39
2023-01-06T17:49:03.943Z,84.68
2023-01-06T17:52:17.342Z,84.43
2023-01-06T17:55:44.957Z,84.50
2023-01-06T17:58:49.131Z,84.59
2023-01-06T18:01:52.857Z,84.16
2023-01-06T18:04:58.329Z,84.17
2023-01-06T18:08:11.633Z,84.54
2023-01-06T18:11:26.453Z,84.33
2023-01-06T18:14:33.087Z,84.06
2023-01-06T18:17:36.355Z,84.24
2023-01-06T18:20:39.120Z,84.12
2023-01-06T18:23:43.095Z,84.25
2023-01-06T18:26:51.598Z,84.02
2023-01-06T18:29:57.576Z,84.19
2023-01-06T18:33:01.912Z,84.18
2023-01-06T18:36:05.633Z,84.42
2023-01-06T18:39:09.533Z,84.59
2023-01-06T18:42:27.455Z,84.80
2023-01-06T18:45:36.735Z,84.75
2023-01-06T18:48:39.660Z,84.88
2023-01-06T18:51:43.241Z,85.09
2023-01-06T18:54:45.905Z,85.07
2023-01-06T18:57:56.568Z,84.88
2023-01-06T19:01:03.487Z,85.10
2023-01-06T19:04:11.060Z,85.11
2023-01-06T19:07:28.919Z,85.14
2023-01-06T19:10:31.628Z,85.20
2023-01-06T19:13:34.563Z,85.26
2023-01-06T19:16:44.165Z,85.36
2023-01-06T19:19:47.031Z,85.50
2023-01-06T19:22:50.792Z,85.45
2023-01-06T19:25:58.954Z,85.55
2023-01-06T19:29:03.839Z,85.23
2023-01-06T19:32:15.777Z,85.39
2023-01-06T19:35:25.467Z,85.08
2023-01-06T19:38:30.133Z,85.23
2023-01-06T19:41:34.688Z,85.29
2023-01-06T19:44:39.048Z,85.12
2023-01-06T19:47:43.268Z,85.05
2023-01-06T19:50:48.072Z,84.94
2023-01-06T19:53:53.795Z,84.98
2023-01-06T19:56:57.548Z,84.98
2023-01-06T20:00:03.096Z,84.92
2023-01-06T20:03:29.247Z,85.15
2023-01-06T20:06:31.982Z,85.24
2023-01-06T20:09:35.173Z,84.94
2023-01-06T20:12:38.111Z,85.19
2023-01-06T20:15:40.837Z,84.86
2023-01-06T20:18:44.876Z,84.98
2023-01-06T20:21:47.739Z,84.86
2023-01-06T20:24:50.469Z,84.88
2023-01-06T20:27:53.200Z,85.02
2023-01-06T20:30:55.891Z,85.03
2023-01-06T20:34:06.004Z,84.83
2023-01-06T20:37:08.713Z,84.51
2023-01-06T20:40:12.040Z,84.37
2023-01-06T20:43:14.709Z,84.55
2023-01-06T20:46:17.544Z,84.80
2023-01-06T20:49:21.631Z,84.58
2023-01-06T20:52:24.534Z,84.50
2023-01-06T20:56:03.451Z,84.49
2023-01-06T20:59:37.588Z,84.62
2023-01-06T21:03:21.326Z,84.54
2023-01-06T21:06:25.650Z,84.62
2023-01-06T21:09:29.190Z,84.48
2023-01-06T21:12:31.989Z,84.83
2023-01-06T21:15:35.126Z,84.91
2023-01-06T21:18:37.775Z,84.62
2023-01-06T21:21:42.548Z,85.04
2023-01-06T21:24:45.209Z,85.12
2023-01-06T21:27:47.962Z,84.83
2023-01-06T21:30:50.822Z,84.89
2023-01-06T21:33:53.941Z,85.20
2023-01-06T21:36:58.009Z,84.90
2023-01-06T21:40:00.896Z,85.30
2023-01-06T21:43:09.365Z,85.31
2023-01-06T21:46:12.172Z,84.86
2023-01-06T21:49:15.008Z,85.28
2023-01-06T21:52:19.209Z,84.99
2023-01-06T21:55:22.080Z,85.08
2023-01-06T21:58:25.568Z,85.37
2023-01-06T22:01:28.418Z,85.10
2023-01-06T22:04:31.124Z,85.38
2023-01-06T22:07:37.120Z,85.33
2023-01-06T22:10:43.361Z,85.31
2023-01-06T22:13:46.447Z,85.40
2023-01-06T22:16:49.261Z,85.35
2023-01-06T22:19:54.875Z,85.09
2023-01-06T22:23:02.277Z,84.99
2023-01-06T22:26:05.327Z,84.69
2023-01-06T22:29:08.341Z,84.97
2023-01-06T22:32:11.029Z,85.17
2023-01-06T22:35:15.260Z,84.94
2023-01-06T22:38:21.453Z,85.12
2023-01-06T22:41:24.790Z,85.51
2023-01-06T22:44:27.650Z,85.19
2023-01-06T22:47:30.461Z,85.17
2023-01-06T22:50:33.709Z,85.04
2023-01-06T22:53:38.052Z,85.14
2023-01-06T22:56:41.914Z,85.35
2023-01-06T22:59:45.043Z,85.25
2023-01-06T23:02:48.072Z,85.13
2023-01-06T23:05:58.293Z,84.87
2023-01-06T23:09:02.568Z,85.07
2023-01-06T23:12:06.829Z,85.03
2023-01-06T23:15:10.695Z,84.90
2023-01-06T23:18:13.435Z,84.92
2023-01-06T23:21:21.368Z,85.11
2023-01-06T23:24:26.015Z,84.88
2023-01-06T23:27:36.131Z,84.99
2023-01-06T23:30:38.764Z,84.93
2023-01-06T23:33:42.874Z,84.81
2023-01-06T23:36:45.907Z,84.92
2023-01-06T23:39:49.919Z,85.23
2023-01-06T23:42:53.918Z,84.86
2023-01-06T23:46:00.556Z,84.92
2023-01-06T23:49:03.719Z,84.65
2023-01-06T23:52:06.525Z,85.14
2023-01-06T23:55:11.076Z,84.90
2023-01-06T23:58:13.738Z,85.22
